createdAt,value
2019-01-17T00:02:47.710Z,7.27
2019-01-17T00:05:51.116Z,5.73
2019-01-17T00:09:03.292Z,3.37
2019-01-17T00:12:10.356Z,3.70
2019-01-17T00:15:19.569Z,4.23
2019-01-17T00:18:31.797Z,3.47
2019-01-17T00:21:31.482Z,4.23
2019-01-17T00:24:53.173Z,4.67
2019-01-17T00:28:12.035Z,3.53
2019-01-17T00:31:23.989Z,4.90
2019-01-17T00:34:31.846Z,4.30
2019-01-17T00:37:46.112Z,4.03
2019-01-17T00:40:55.534Z,4.43
2019-01-17T00:44:10.642Z,4.30
2019-01-17T00:47:22.966Z,3.43
2019-01-17T00:50:30.621Z,3.40
2019-01-17T00:53:52.118Z,3.10
2019-01-17T00:57:07.792Z,4.67
2019-01-17T01:00:17.256Z,5.30
2019-01-17T01:03:25.341Z,4.03
2019-01-17T01:06:38.227Z,3.87
2019-01-17T01:09:59.820Z,3.10
2019-01-17T01:13:17.992Z,3.30
2019-01-17T01:16:31.710Z,5.60
2019-01-17T01:19:47.279Z,5.70
2019-01-17T01:23:02.901Z,3.37
2019-01-17T01:26:14.893Z,4.67
2019-01-17T01:29:24.466Z,3.63
2019-01-17T01:32:34.246Z,4.00
2019-01-17T01:35:51.932Z,3.13
2019-01-17T01:39:08.022Z,5.17
2019-01-17T01:42:18.378Z,4.70
2019-01-17T01:45:26.356Z,4.27
2019-01-17T01:48:38.618Z,2.70
2019-01-17T01:51:49.006Z,4.33
2019-01-17T01:54:39.733Z,3.37
2019-01-17T01:57:30.647Z,3.80
2019-01-17T02:00:21.412Z,3.47
2019-01-17T02:03:11.915Z,3.57
2019-01-17T02:06:02.460Z,3.20
2019-01-17T02:08:53.130Z,3.67
2019-01-17T02:11:43.668Z,3.97
2019-01-17T02:14:34.402Z,4.70
2019-01-17T02:17:25.435Z,3.90
2019-01-17T02:20:15.846Z,3.30
2019-01-17T02:23:06.627Z,2.57
2019-01-17T02:25:57.233Z,4.33
2019-01-17T02:28:47.884Z,4.37
2019-01-17T02:31:38.799Z,4.07
2019-01-17T02:34:29.404Z,3.67
2019-01-17T02:37:20.157Z,3.97
2019-01-17T02:40:13.059Z,3.00
2019-01-17T02:43:03.383Z,4.37
2019-01-17T02:45:54.131Z,2.73
2019-01-17T02:48:44.726Z,3.27
2019-01-17T02:51:35.243Z,3.63
2019-01-17T02:54:25.730Z,3.53
2019-01-17T02:57:16.507Z,2.70
2019-01-17T03:00:10.143Z,4.50
2019-01-17T03:03:00.291Z,4.40
2019-01-17T03:05:50.814Z,4.47
2019-01-17T03:08:41.835Z,6.47
2019-01-17T03:11:32.384Z,4.00
2019-01-17T03:14:23.067Z,3.90
2019-01-17T03:17:13.325Z,3.70
2019-01-17T03:20:04.733Z,4.97
2019-01-17T03:22:55.469Z,3.73
2019-01-17T03:25:45.988Z,4.77
2019-01-17T03:28:36.536Z,3.40
2019-01-17T03:31:27.239Z,3.57
2019-01-17T03:34:17.909Z,3.70
2019-01-17T03:37:09.719Z,3.03
2019-01-17T03:40:00.261Z,2.60
2019-01-17T03:42:50.726Z,3.27
2019-01-17T03:45:42.969Z,3.97
2019-01-17T03:48:33.556Z,3.37
2019-01-17T03:51:23.802Z,2.57
2019-01-17T03:54:14.308Z,3.50
2019-01-17T03:57:09.177Z,3.00
2019-01-17T04:00:00.096Z,2.60
2019-01-17T04:02:50.645Z,4.50
2019-01-17T04:05:41.343Z,3.23
2019-01-17T04:08:32.432Z,2.17
2019-01-17T04:11:23.610Z,3.13
2019-01-17T04:14:14.540Z,2.73
2019-01-17T04:17:05.426Z,2.20
2019-01-17T04:19:56.132Z,2.37
2019-01-17T04:22:46.385Z,2.60
2019-01-17T04:25:36.754Z,2.30
2019-01-17T04:28:27.176Z,1.87
2019-01-17T04:31:17.760Z,2.43
2019-01-17T04:34:09.437Z,2.50
2019-01-17T04:37:00.190Z,2.20
2019-01-17T04:39:50.583Z,1.80
2019-01-17T04:42:41.245Z,3.03
2019-01-17T04:45:31.935Z,1.70
2019-01-17T04:48:22.277Z,3.27
2019-01-17T04:51:12.718Z,3.90
2019-01-17T04:54:03.073Z,1.97
2019-01-17T04:56:53.898Z,2.50
2019-01-17T04:59:44.546Z,3.10
2019-01-17T05:02:35.262Z,2.67
2019-01-17T05:05:25.645Z,2.30
2019-01-17T05:08:16.372Z,2.30
2019-01-17T05:11:06.807Z,2.57
2019-01-17T05:13:57.556Z,3.90
2019-01-17T05:16:48.152Z,2.27
2019-01-17T05:19:38.802Z,2.33
2019-01-17T05:22:29.318Z,3.07
2019-01-17T05:25:20.206Z,2.83
2019-01-17T05:28:10.700Z,3.13
2019-01-17T05:31:01.405Z,4.00
2019-01-17T05:33:51.754Z,2.63
2019-01-17T05:36:42.290Z,3.17
2019-01-17T05:39:32.790Z,2.90
2019-01-17T05:42:23.152Z,4.90
2019-01-17T05:45:13.752Z,2.70
2019-01-17T05:48:04.356Z,2.50
2019-01-17T05:50:54.706Z,2.60
2019-01-17T05:53:45.457Z,3.80
2019-01-17T05:56:36.272Z,2.57
2019-01-17T05:59:26.988Z,2.30
2019-01-17T06:02:17.821Z,3.30
2019-01-17T06:05:08.910Z,2.07
2019-01-17T06:07:59.300Z,3.20
2019-01-17T06:10:49.811Z,3.90
2019-01-17T06:13:40.013Z,2.13
2019-01-17T06:16:30.858Z,2.30
2019-01-17T06:19:24.359Z,3.03
2019-01-17T06:22:15.448Z,2.93
2019-01-17T06:25:06.154Z,2.77
2019-01-17T06:27:56.505Z,2.53
2019-01-17T06:30:46.841Z,3.60
2019-01-17T06:33:37.526Z,2.53
2019-01-17T06:36:28.239Z,2.60
2019-01-17T06:39:19.549Z,2.60
2019-01-17T06:42:09.896Z,3.33
2019-01-17T06:45:00.784Z,2.83
2019-01-17T06:47:51.407Z,3.03
2019-01-17T06:50:42.049Z,2.63
2019-01-17T06:53:32.641Z,3.03
2019-01-17T06:56:22.917Z,3.30
2019-01-17T06:59:13.530Z,3.60
2019-01-17T07:02:03.961Z,2.63
2019-01-17T07:04:55.156Z,2.75
2019-01-17T07:07:46.215Z,2.98
2019-01-17T07:10:37.527Z,3.17
2019-01-17T07:13:29.619Z,3.83
2019-01-17T07:16:20.512Z,2.80
2019-01-17T07:19:12.070Z,3.37
2019-01-17T07:22:03.153Z,3.98
2019-01-17T07:24:54.371Z,3.70
2019-01-17T07:27:45.466Z,4.87
2019-01-17T07:30:36.850Z,3.50
2019-01-17T07:33:27.927Z,3.40
2019-01-17T07:36:20.692Z,3.17
2019-01-17T07:39:11.899Z,2.90
2019-01-17T07:42:03.462Z,2.83
2019-01-17T07:44:54.966Z,3.12
2019-01-17T07:47:46.411Z,3.87
2019-01-17T07:50:37.856Z,3.60
2019-01-17T07:53:29.372Z,3.22
2019-01-17T07:56:20.808Z,2.87
2019-01-17T07:59:11.786Z,3.08
2019-01-17T08:02:07.097Z,3.42
2019-01-17T08:04:58.580Z,4.15
2019-01-17T08:07:49.725Z,6.50
2019-01-17T08:10:41.274Z,4.80
2019-01-17T08:13:32.319Z,7.58
2019-01-17T08:16:23.430Z,6.37
2019-01-17T08:19:14.864Z,9.35
2019-01-17T08:22:06.070Z,7.22
2019-01-17T08:24:57.253Z,9.00
2019-01-17T08:27:47.847Z,6.73
2019-01-17T08:30:38.308Z,5.73
2019-01-17T08:33:29.350Z,4.63
2019-01-17T08:36:20.013Z,4.70
2019-01-17T08:39:10.951Z,5.70
2019-01-17T08:42:02.235Z,3.17
2019-01-17T08:44:52.597Z,4.20
2019-01-17T08:47:43.348Z,4.17
2019-01-17T08:50:34.153Z,4.33
2019-01-17T08:53:24.528Z,3.20
2019-01-17T08:56:15.330Z,6.13
2019-01-17T08:59:08.322Z,5.50
2019-01-17T09:01:59.164Z,3.70
2019-01-17T09:04:50.068Z,6.47
2019-01-17T09:07:42.122Z,4.10
2019-01-17T09:10:32.623Z,4.57
2019-01-17T09:13:23.307Z,3.90
2019-01-17T09:16:13.857Z,3.40
2019-01-17T09:19:04.546Z,3.10
2019-01-17T09:21:55.163Z,3.10
2019-01-17T09:24:45.772Z,3.60
2019-01-17T09:27:36.337Z,3.97
2019-01-17T09:30:27.147Z,4.23
2019-01-17T09:33:17.774Z,4.30
2019-01-17T09:36:08.315Z,3.87
2019-01-17T09:38:58.888Z,3.80
2019-01-17T09:41:49.639Z,3.47
2019-01-17T09:44:40.343Z,2.60
2019-01-17T09:47:31.119Z,3.50
2019-01-17T09:50:23.897Z,2.83
2019-01-17T09:53:16.764Z,3.33
2019-01-17T09:56:08.148Z,2.80
2019-01-17T09:58:59.992Z,2.73
2019-01-17T10:01:50.687Z,4.60
2019-01-17T10:04:41.163Z,2.70
2019-01-17T10:07:31.649Z,3.13
2019-01-17T10:10:23.975Z,4.50
2019-01-17T10:13:14.367Z,5.10
2019-01-17T10:16:26.282Z,3.43
2019-01-17T10:19:43.555Z,3.20
2019-01-17T10:23:03.568Z,3.00
2019-01-17T10:26:28.969Z,2.80
2019-01-17T10:29:34.730Z,3.77
2019-01-17T10:33:19.296Z,4.27
2019-01-17T10:36:50.937Z,3.97
2019-01-17T10:40:27.334Z,3.70
2019-01-17T10:43:58.558Z,3.93
2019-01-17T10:47:35.243Z,2.63
2019-01-17T10:51:11.447Z,3.77
2019-01-17T10:54:37.743Z,2.93
2019-01-17T10:57:47.539Z,3.40
2019-01-17T11:01:06.693Z,4.17
2019-01-17T11:04:23.202Z,3.33
2019-01-17T11:08:03.019Z,3.70
2019-01-17T11:11:45.433Z,3.37
2019-01-17T11:14:47.668Z,3.10
2019-01-17T11:18:17.106Z,3.43
2019-01-17T11:21:34.021Z,3.17
2019-01-17T11:25:04.287Z,3.53
2019-01-17T11:28:31.380Z,2.63
2019-01-17T11:31:40.169Z,3.20
2019-01-17T11:35:14.962Z,3.97
2019-01-17T11:38:59.021Z,5.10
2019-01-17T11:42:22.118Z,2.70
2019-01-17T11:45:53.181Z,4.40
2019-01-17T11:49:11.478Z,3.03
2019-01-17T11:52:44.972Z,4.10
2019-01-17T11:56:11.495Z,4.10
2019-01-17T11:59:38.886Z,4.10
2019-01-17T12:03:10.394Z,3.50
2019-01-17T12:06:00.879Z,2.90
2019-01-17T12:08:51.411Z,4.00
2019-01-17T12:11:41.775Z,3.20
2019-01-17T12:14:32.363Z,3.77
2019-01-17T12:17:23.102Z,3.03
2019-01-17T12:20:13.700Z,3.13
2019-01-17T12:23:04.710Z,2.60
2019-01-17T12:25:58.213Z,4.40
2019-01-17T12:28:49.281Z,2.73
2019-01-17T12:31:40.127Z,4.20
2019-01-17T12:34:30.806Z,4.17
2019-01-17T12:37:21.313Z,2.50
2019-01-17T12:40:14.554Z,3.87
2019-01-17T12:43:05.037Z,3.53
2019-01-17T12:45:55.911Z,6.33
2019-01-17T12:48:46.772Z,3.50
2019-01-17T12:51:37.462Z,3.90
2019-01-17T12:54:28.275Z,2.67
2019-01-17T12:57:19.200Z,4.97
2019-01-17T13:00:13.457Z,3.07
2019-01-17T13:03:06.748Z,3.10
2019-01-17T13:05:57.132Z,3.77
2019-01-17T13:08:50.396Z,4.13
2019-01-17T13:11:40.861Z,3.33
2019-01-17T13:14:31.572Z,3.97
2019-01-17T13:17:22.151Z,4.17
2019-01-17T13:20:15.094Z,8.57
2019-01-17T13:23:05.389Z,4.40
2019-01-17T13:25:56.086Z,3.30
2019-01-17T13:28:46.694Z,4.60
2019-01-17T13:31:39.189Z,4.63
2019-01-17T13:34:29.565Z,6.63
2019-01-17T13:37:20.568Z,3.83
2019-01-17T13:40:16.075Z,4.33
2019-01-17T13:43:06.618Z,3.27
2019-01-17T13:45:57.187Z,6.60
2019-01-17T13:48:47.980Z,4.13
2019-01-17T13:51:38.590Z,3.80
2019-01-17T13:54:30.541Z,3.33
2019-01-17T13:57:20.816Z,3.57
2019-01-17T14:00:17.970Z,2.90
2019-01-17T14:03:08.393Z,4.43
2019-01-17T14:05:59.167Z,3.70
2019-01-17T14:08:49.589Z,3.53
2019-01-17T14:11:40.735Z,4.50
2019-01-17T14:14:31.281Z,5.57
2019-01-17T14:17:21.827Z,5.53
2019-01-17T14:20:12.604Z,4.13
2019-01-17T14:23:03.602Z,3.07
2019-01-17T14:25:53.958Z,4.60
2019-01-17T14:28:44.560Z,3.30
2019-01-17T14:31:35.182Z,3.77
2019-01-17T14:34:25.466Z,3.33
2019-01-17T14:37:16.169Z,3.00
2019-01-17T14:40:06.893Z,4.53
2019-01-17T14:42:58.613Z,6.87
2019-01-17T14:45:49.466Z,6.17
2019-01-17T14:48:40.576Z,5.37
2019-01-17T14:51:31.482Z,3.77
2019-01-17T14:54:22.216Z,3.60
2019-01-17T14:57:12.944Z,5.93
2019-01-17T15:00:03.586Z,3.60
2019-01-17T15:02:54.356Z,3.80
2019-01-17T15:05:45.153Z,7.30
2019-01-17T15:08:37.480Z,4.67
2019-01-17T15:11:28.043Z,3.80
2019-01-17T15:14:19.442Z,6.03
2019-01-17T15:17:10.165Z,3.90
2019-01-17T15:20:00.875Z,5.43
2019-01-17T15:22:52.373Z,5.83
2019-01-17T15:25:43.376Z,5.17
2019-01-17T15:28:33.930Z,6.73
2019-01-17T15:31:24.985Z,5.53
2019-01-17T15:34:15.721Z,5.63
2019-01-17T15:37:06.418Z,6.63
2019-01-17T15:39:58.527Z,6.07
2019-01-17T15:42:49.110Z,6.23
2019-01-17T15:45:39.668Z,7.27
2019-01-17T15:48:30.211Z,8.87
2019-01-17T15:51:20.860Z,5.10
2019-01-17T15:54:12.862Z,4.23
2019-01-17T15:57:06.285Z,7.37
2019-01-17T15:59:56.976Z,5.70
2019-01-17T16:02:47.566Z,7.17
2019-01-17T16:05:38.535Z,4.90
2019-01-17T16:08:29.332Z,5.80
2019-01-17T16:11:19.897Z,6.67
2019-01-17T16:14:10.498Z,4.57
2019-01-17T16:17:01.036Z,4.20
2019-01-17T16:19:51.658Z,5.47
2019-01-17T16:22:42.469Z,4.33
2019-01-17T16:25:33.082Z,5.53
2019-01-17T16:28:23.896Z,5.63
2019-01-17T16:31:14.303Z,4.03
2019-01-17T16:34:04.862Z,5.43
2019-01-17T16:36:55.457Z,5.57
2019-01-17T16:39:46.365Z,8.37
2019-01-17T16:42:37.091Z,10.27
2019-01-17T16:45:27.864Z,11.00
2019-01-17T16:48:18.543Z,9.03
2019-01-17T16:51:09.110Z,5.93
2019-01-17T16:53:59.599Z,7.93
2019-01-17T16:56:50.188Z,6.00
2019-01-17T16:59:40.730Z,7.43
2019-01-17T17:02:31.295Z,5.23
2019-01-17T17:05:22.099Z,7.63
2019-01-17T17:08:13.474Z,7.43
2019-01-17T17:11:04.049Z,7.53
2019-01-17T17:13:54.790Z,5.17
2019-01-17T17:16:45.767Z,5.10
2019-01-17T17:19:36.516Z,7.23
2019-01-17T17:22:27.246Z,5.57
2019-01-17T17:25:17.947Z,5.57
2019-01-17T17:28:08.349Z,4.67
2019-01-17T17:30:58.900Z,6.83
2019-01-17T17:33:52.465Z,9.20
2019-01-17T17:36:43.432Z,4.43
2019-01-17T17:39:33.733Z,4.40
2019-01-17T17:42:24.552Z,3.90
2019-01-17T17:45:15.038Z,5.63
2019-01-17T17:48:05.777Z,4.60
2019-01-17T17:50:57.732Z,4.67
2019-01-17T17:53:48.481Z,4.37
2019-01-17T17:56:39.202Z,5.17
2019-01-17T17:59:29.917Z,4.87
2019-01-17T18:02:29.763Z,4.47
2019-01-17T18:05:20.418Z,5.43
2019-01-17T18:08:10.854Z,5.70
2019-01-17T18:11:01.754Z,4.00
2019-01-17T18:13:52.081Z,3.90
2019-01-17T18:16:42.861Z,4.50
2019-01-17T18:19:33.458Z,5.60
2019-01-17T18:22:24.355Z,4.97
2019-01-17T18:25:14.964Z,4.30
2019-01-17T18:28:08.843Z,4.73
2019-01-17T18:30:58.171Z,5.00
2019-01-17T18:33:50.445Z,5.60
2019-01-17T18:36:41.147Z,4.83
2019-01-17T18:39:32.156Z,4.03
2019-01-17T18:42:22.786Z,5.67
2019-01-17T18:45:15.993Z,4.50
2019-01-17T18:48:06.373Z,4.90
2019-01-17T18:50:56.964Z,4.60
2019-01-17T18:53:47.394Z,5.03
2019-01-17T18:56:38.269Z,4.07
2019-01-17T18:59:28.779Z,5.30
2019-01-17T19:02:19.295Z,3.67
2019-01-17T19:05:09.635Z,5.53
2019-01-17T19:08:00.166Z,5.47
2019-01-17T19:10:50.802Z,5.20
2019-01-17T19:13:41.302Z,5.30
2019-01-17T19:16:32.228Z,4.27
2019-01-17T19:19:23.225Z,7.27
2019-01-17T19:22:13.796Z,4.10
2019-01-17T19:25:04.473Z,5.87
2019-01-17T19:27:54.972Z,3.60
2019-01-17T19:30:45.995Z,7.20
2019-01-17T19:33:36.646Z,3.90
2019-01-17T19:36:27.257Z,4.33
2019-01-17T19:39:18.766Z,6.27
2019-01-17T19:42:09.433Z,4.33
2019-01-17T19:44:59.968Z,5.37
2019-01-17T19:47:50.664Z,5.30
2019-01-17T19:50:41.406Z,5.27
2019-01-17T19:53:32.128Z,5.83
2019-01-17T19:56:22.743Z,6.33
2019-01-17T19:59:13.408Z,6.17
2019-01-17T20:02:03.971Z,3.93
2019-01-17T20:04:54.789Z,5.13
2019-01-17T20:07:45.194Z,4.13
2019-01-17T20:10:37.019Z,5.53
2019-01-17T20:13:27.239Z,4.77
2019-01-17T20:16:17.648Z,6.37
2019-01-17T20:19:08.605Z,4.80
2019-01-17T20:21:59.398Z,5.47
2019-01-17T20:24:49.846Z,4.43
2019-01-17T20:27:40.660Z,5.53
2019-01-17T20:30:33.004Z,6.73
2019-01-17T20:33:23.779Z,6.90
2019-01-17T20:36:14.407Z,5.77
2019-01-17T20:39:06.408Z,6.87
2019-01-17T20:41:56.756Z,6.10
2019-01-17T20:44:47.727Z,7.37
2019-01-17T20:47:38.204Z,4.50
2019-01-17T20:50:31.315Z,6.90
2019-01-17T20:53:22.097Z,4.70
2019-01-17T20:56:13.310Z,5.30
2019-01-17T20:59:03.595Z,7.00
2019-01-17T21:02:04.757Z,4.50
2019-01-17T21:04:57.210Z,4.43
2019-01-17T21:07:47.906Z,4.63
2019-01-17T21:10:38.640Z,5.47
2019-01-17T21:13:29.406Z,5.90
2019-01-17T21:16:19.970Z,6.10
2019-01-17T21:19:11.046Z,5.63
2019-01-17T21:22:01.846Z,5.97
2019-01-17T21:24:52.590Z,9.20
2019-01-17T21:27:43.115Z,5.20
2019-01-17T21:30:33.848Z,6.73
2019-01-17T21:33:24.437Z,4.80
2019-01-17T21:36:15.292Z,5.70
2019-01-17T21:39:07.431Z,5.03
2019-01-17T21:41:57.857Z,4.73
2019-01-17T21:44:48.663Z,4.50
2019-01-17T21:47:39.666Z,5.33
2019-01-17T21:50:30.017Z,6.13
2019-01-17T21:53:20.520Z,5.60
2019-01-17T21:56:10.912Z,5.00
2019-01-17T21:59:01.916Z,4.63
2019-01-17T22:01:52.623Z,6.50
2019-01-17T22:04:43.263Z,5.53
2019-01-17T22:07:33.462Z,4.43
2019-01-17T22:10:24.286Z,5.20
2019-01-17T22:13:14.891Z,4.80
2019-01-17T22:16:06.024Z,5.97
2019-01-17T22:18:56.685Z,6.03
2019-01-17T22:21:47.062Z,6.93
2019-01-17T22:24:37.374Z,4.83
2019-01-17T22:27:28.629Z,4.70
2019-01-17T22:30:24.452Z,5.93
2019-01-17T22:33:15.315Z,5.93
2019-01-17T22:36:06.066Z,6.73
2019-01-17T22:38:56.495Z,5.37
2019-01-17T22:41:47.332Z,3.90
2019-01-17T22:44:38.006Z,6.77
2019-01-17T22:47:28.900Z,5.23
2019-01-17T22:50:19.821Z,6.97
2019-01-17T22:53:10.649Z,4.07
2019-01-17T22:56:01.625Z,4.20
2019-01-17T22:58:52.295Z,4.00
2019-01-17T23:01:43.023Z,5.50
2019-01-17T23:04:33.601Z,7.23
2019-01-17T23:07:23.944Z,5.23
2019-01-17T23:10:14.354Z,3.90
2019-01-17T23:13:07.921Z,5.20
2019-01-17T23:15:58.347Z,6.33
2019-01-17T23:18:49.062Z,4.50
2019-01-17T23:21:39.496Z,4.10
2019-01-17T23:24:30.233Z,4.77
2019-01-17T23:27:20.837Z,4.37
2019-01-17T23:30:11.937Z,4.70
2019-01-17T23:33:02.572Z,4.47
2019-01-17T23:35:53.597Z,8.53
2019-01-17T23:38:44.487Z,5.53
2019-01-17T23:41:35.395Z,5.63
2019-01-17T23:44:26.225Z,4.07
2019-01-17T23:47:16.873Z,5.33
2019-01-17T23:50:07.553Z,5.97
2019-01-17T23:52:58.200Z,5.43
2019-01-17T23:55:48.762Z,5.40
2019-01-17T23:58:39.773Z,5.60
